sensor_id;sensor_type;location;lat;lon;timestamp;P1;durP1;ratioP1;P2;durP2;ratioP2
79646;SDS011;69119;41.718;21.786;2023-05-10T00:03:00;13.23;;;7.20;;
79646;SDS011;69119;41.718;21.786;2023-05-10T00:05:29;12.98;;;8.35;;
79646;SDS011;69119;41.718;21.786;2023-05-10T00:07:55;12.18;;;8.52;;
79646;SDS011;69119;41.718;21.786;2023-05-10T00:10:21;10.32;;;7.22;;
79646;SDS011;69119;41.718;21.786;2023-05-10T00:12:47;10.80;;;6.65;;
79646;SDS011;69119;41.718;21.786;2023-05-10T00:15:13;11.40;;;7.53;;
79646;SDS011;69119;41.718;21.786;2023-05-10T00:17:40;11.38;;;6.90;;
79646;SDS011;69119;41.718;21.786;2023-05-10T00:20:06;9.25;;;5.30;;
79646;SDS011;69119;41.718;21.786;2023-05-10T00:24:59;10.65;;;6.15;;
79646;SDS011;69119;41.718;21.786;2023-05-10T00:29:51;12.27;;;7.35;;
79646;SDS011;69119;41.718;21.786;2023-05-10T00:32:17;12.73;;;8.48;;
79646;SDS011;69119;41.718;21.786;2023-05-10T00:34:43;14.48;;;9.30;;
79646;SDS011;69119;41.718;21.786;2023-05-10T00:37:09;14.23;;;9.10;;
79646;SDS011;69119;41.718;21.786;2023-05-10T00:39:35;10.63;;;6.55;;
79646;SDS011;69119;41.718;21.786;2023-05-10T00:42:01;12.75;;;8.60;;
79646;SDS011;69119;41.718;21.786;2023-05-10T00:44:27;12.57;;;8.25;;
79646;SDS011;69119;41.718;21.786;2023-05-10T00:46:53;14.63;;;9.57;;
79646;SDS011;69119;41.718;21.786;2023-05-10T00:49:19;15.05;;;10.02;;
79646;SDS011;69119;41.718;21.786;2023-05-10T00:51:46;15.13;;;10.90;;
79646;SDS011;69119;41.718;21.786;2023-05-10T00:54:12;17.05;;;10.95;;
79646;SDS011;69119;41.718;21.786;2023-05-10T00:56:40;17.23;;;11.77;;
79646;SDS011;69119;41.718;21.786;2023-05-10T00:59:09;15.13;;;9.70;;
79646;SDS011;69119;41.718;21.786;2023-05-10T01:01:35;15.57;;;11.25;;
79646;SDS011;69119;41.718;21.786;2023-05-10T01:04:02;15.18;;;10.40;;
79646;SDS011;69119;41.718;21.786;2023-05-10T01:06:28;17.73;;;11.27;;
79646;SDS011;69119;41.718;21.786;2023-05-10T01:08:55;18.73;;;12.32;;
79646;SDS011;69119;41.718;21.786;2023-05-10T01:13:47;13.48;;;8.65;;
79646;SDS011;69119;41.718;21.786;2023-05-10T01:16:16;11.70;;;7.07;;
79646;SDS011;69119;41.718;21.786;2023-05-10T01:18:42;11.05;;;7.20;;
79646;SDS011;69119;41.718;21.786;2023-05-10T01:26:37;10.52;;;6.22;;
79646;SDS011;69119;41.718;21.786;2023-05-10T01:29:13;11.68;;;8.02;;
79646;SDS011;69119;41.718;21.786;2023-05-10T01:34:27;11.27;;;7.43;;
79646;SDS011;69119;41.718;21.786;2023-05-10T01:37:15;10.50;;;7.25;;
79646;SDS011;69119;41.718;21.786;2023-05-10T01:39:45;10.20;;;6.45;;
79646;SDS011;69119;41.718;21.786;2023-05-10T01:42:33;14.18;;;7.25;;
79646;SDS011;69119;41.718;21.786;2023-05-10T01:45:06;12.75;;;6.30;;
79646;SDS011;69119;41.718;21.786;2023-05-10T01:47:43;11.50;;;5.68;;
79646;SDS011;69119;41.718;21.786;2023-05-10T01:50:10;10.82;;;6.15;;
79646;SDS011;69119;41.718;21.786;2023-05-10T01:52:37;9.75;;;6.13;;
79646;SDS011;69119;41.718;21.786;2023-05-10T01:55:14;10.20;;;5.53;;
79646;SDS011;69119;41.718;21.786;2023-05-10T01:57:40;9.55;;;5.97;;
79646;SDS011;69119;41.718;21.786;2023-05-10T02:00:08;10.90;;;5.70;;
79646;SDS011;69119;41.718;21.786;2023-05-10T02:02:40;8.10;;;4.55;;
79646;SDS011;69119;41.718;21.786;2023-05-10T02:05:07;8.73;;;4.90;;
79646;SDS011;69119;41.718;21.786;2023-05-10T02:07:34;8.13;;;5.28;;
79646;SDS011;69119;41.718;21.786;2023-05-10T02:10:04;11.23;;;5.15;;
79646;SDS011;69119;41.718;21.786;2023-05-10T02:12:31;10.23;;;5.43;;
79646;SDS011;69119;41.718;21.786;2023-05-10T02:14:59;11.27;;;5.03;;
79646;SDS011;69119;41.718;21.786;2023-05-10T02:17:26;8.75;;;5.25;;
79646;SDS011;69119;41.718;21.786;2023-05-10T02:19:53;8.93;;;5.68;;
79646;SDS011;69119;41.718;21.786;2023-05-10T02:22:21;10.23;;;6.40;;
79646;SDS011;69119;41.718;21.786;2023-05-10T02:24:48;10.07;;;6.25;;
79646;SDS011;69119;41.718;21.786;2023-05-10T02:27:15;9.13;;;5.03;;
79646;SDS011;69119;41.718;21.786;2023-05-10T02:29:41;10.63;;;5.38;;
79646;SDS011;69119;41.718;21.786;2023-05-10T02:32:08;9.32;;;5.65;;
79646;SDS011;69119;41.718;21.786;2023-05-10T02:34:34;8.60;;;5.43;;
79646;SDS011;69119;41.718;21.786;2023-05-10T02:37:00;9.05;;;5.72;;
79646;SDS011;69119;41.718;21.786;2023-05-10T02:39:28;9.27;;;5.57;;
79646;SDS011;69119;41.718;21.786;2023-05-10T02:41:55;10.93;;;6.60;;
79646;SDS011;69119;41.718;21.786;2023-05-10T02:44:22;8.32;;;4.15;;
79646;SDS011;69119;41.718;21.786;2023-05-10T02:49:15;7.80;;;4.28;;
79646;SDS011;69119;41.718;21.786;2023-05-10T02:51:42;10.55;;;5.13;;
79646;SDS011;69119;41.718;21.786;2023-05-10T02:54:11;8.23;;;4.85;;
79646;SDS011;69119;41.718;21.786;2023-05-10T02:56:40;7.30;;;4.07;;
79646;SDS011;69119;41.718;21.786;2023-05-10T02:59:08;8.35;;;4.88;;
79646;SDS011;69119;41.718;21.786;2023-05-10T03:01:34;15.55;;;5.07;;
79646;SDS011;69119;41.718;21.786;2023-05-10T03:04:00;10.35;;;5.75;;
79646;SDS011;69119;41.718;21.786;2023-05-10T03:06:26;7.95;;;4.38;;
79646;SDS011;69119;41.718;21.786;2023-05-10T03:08:53;10.23;;;5.97;;
79646;SDS011;69119;41.718;21.786;2023-05-10T03:14:13;8.15;;;5.22;;
79646;SDS011;69119;41.718;21.786;2023-05-10T03:16:44;8.60;;;4.70;;
79646;SDS011;69119;41.718;21.786;2023-05-10T03:19:16;10.10;;;4.75;;
79646;SDS011;69119;41.718;21.786;2023-05-10T03:21:44;9.40;;;5.82;;
79646;SDS011;69119;41.718;21.786;2023-05-10T03:24:13;10.70;;;5.80;;
79646;SDS011;69119;41.718;21.786;2023-05-10T03:26:40;9.90;;;6.05;;
79646;SDS011;69119;41.718;21.786;2023-05-10T03:29:10;4.95;;;2.35;;
79646;SDS011;69119;41.718;21.786;2023-05-10T03:31:36;9.77;;;8.00;;
79646;SDS011;69119;41.718;21.786;2023-05-10T03:34:02;9.77;;;5.60;;
79646;SDS011;69119;41.718;21.786;2023-05-10T03:36:28;9.23;;;5.70;;
79646;SDS011;69119;41.718;21.786;2023-05-10T03:38:54;9.75;;;6.00;;
79646;SDS011;69119;41.718;21.786;2023-05-10T03:41:20;8.85;;;4.97;;
79646;SDS011;69119;41.718;21.786;2023-05-10T03:43:46;8.35;;;4.65;;
79646;SDS011;69119;41.718;21.786;2023-05-10T03:46:12;10.13;;;5.80;;
79646;SDS011;69119;41.718;21.786;2023-05-10T03:48:38;7.82;;;4.18;;
79646;SDS011;69119;41.718;21.786;2023-05-10T03:51:04;8.52;;;4.90;;
79646;SDS011;69119;41.718;21.786;2023-05-10T03:53:30;7.70;;;4.72;;
79646;SDS011;69119;41.718;21.786;2023-05-10T03:55:56;9.20;;;4.78;;
79646;SDS011;69119;41.718;21.786;2023-05-10T03:58:22;24.02;;;14.75;;
79646;SDS011;69119;41.718;21.786;2023-05-10T04:00:48;10.73;;;5.88;;
79646;SDS011;69119;41.718;21.786;2023-05-10T04:03:14;10.10;;;5.60;;
79646;SDS011;69119;41.718;21.786;2023-05-10T04:05:40;8.68;;;5.45;;
79646;SDS011;69119;41.718;21.786;2023-05-10T04:08:06;8.20;;;4.93;;
79646;SDS011;69119;41.718;21.786;2023-05-10T04:10:32;7.90;;;4.00;;
79646;SDS011;69119;41.718;21.786;2023-05-10T04:12:59;9.15;;;5.07;;
79646;SDS011;69119;41.718;21.786;2023-05-10T04:15:25;7.93;;;5.20;;
79646;SDS011;69119;41.718;21.786;2023-05-10T04:17:51;8.30;;;5.55;;
79646;SDS011;69119;41.718;21.786;2023-05-10T04:20:17;8.73;;;5.68;;
79646;SDS011;69119;41.718;21.786;2023-05-10T04:22:43;7.78;;;4.38;;
79646;SDS011;69119;41.718;21.786;2023-05-10T04:25:09;7.57;;;4.07;;
79646;SDS011;69119;41.718;21.786;2023-05-10T04:27:35;8.52;;;4.00;;
79646;SDS011;69119;41.718;21.786;2023-05-10T04:30:02;9.25;;;4.13;;
79646;SDS011;69119;41.718;21.786;2023-05-10T04:32:28;8.07;;;4.28;;
79646;SDS011;69119;41.718;21.786;2023-05-10T04:34:54;9.77;;;6.47;;
79646;SDS011;69119;41.718;21.786;2023-05-10T04:37:20;6.85;;;3.47;;
79646;SDS011;69119;41.718;21.786;2023-05-10T04:39:47;8.07;;;4.63;;
79646;SDS011;69119;41.718;21.786;2023-05-10T04:42:13;8.25;;;5.07;;
79646;SDS011;69119;41.718;21.786;2023-05-10T04:44:40;11.52;;;3.47;;
79646;SDS011;69119;41.718;21.786;2023-05-10T04:47:06;8.60;;;4.63;;
79646;SDS011;69119;41.718;21.786;2023-05-10T04:49:32;7.53;;;4.05;;
79646;SDS011;69119;41.718;21.786;2023-05-10T04:51:58;8.02;;;5.20;;
79646;SDS011;69119;41.718;21.786;2023-05-10T04:54:24;9.02;;;5.20;;
79646;SDS011;69119;41.718;21.786;2023-05-10T04:56:50;7.38;;;4.20;;
79646;SDS011;69119;41.718;21.786;2023-05-10T04:59:16;7.82;;;4.30;;
79646;SDS011;69119;41.718;21.786;2023-05-10T05:01:42;8.73;;;5.00;;
79646;SDS011;69119;41.718;21.786;2023-05-10T05:04:09;8.10;;;4.03;;
79646;SDS011;69119;41.718;21.786;2023-05-10T05:06:35;8.20;;;4.30;;
79646;SDS011;69119;41.718;21.786;2023-05-10T05:09:01;7.25;;;4.28;;
79646;SDS011;69119;41.718;21.786;2023-05-10T05:11:27;8.48;;;4.22;;
79646;SDS011;69119;41.718;21.786;2023-05-10T05:13:53;7.10;;;3.45;;
79646;SDS011;69119;41.718;21.786;2023-05-10T05:16:19;6.90;;;3.47;;
79646;SDS011;69119;41.718;21.786;2023-05-10T05:21:15;7.30;;;4.47;;
79646;SDS011;69119;41.718;21.786;2023-05-10T05:23:42;7.80;;;4.40;;
79646;SDS011;69119;41.718;21.786;2023-05-10T05:26:08;7.63;;;4.57;;
79646;SDS011;69119;41.718;21.786;2023-05-10T05:28:34;7.03;;;4.07;;
79646;SDS011;69119;41.718;21.786;2023-05-10T05:31:02;7.80;;;3.83;;
79646;SDS011;69119;41.718;21.786;2023-05-10T05:35:54;6.68;;;3.67;;
79646;SDS011;69119;41.718;21.786;2023-05-10T05:38:20;7.28;;;4.40;;
79646;SDS011;69119;41.718;21.786;2023-05-10T05:40:46;7.43;;;4.10;;
79646;SDS011;69119;41.718;21.786;2023-05-10T05:43:13;9.45;;;5.75;;
79646;SDS011;69119;41.718;21.786;2023-05-10T05:45:39;8.35;;;4.35;;
79646;SDS011;69119;41.718;21.786;2023-05-10T05:48:05;7.82;;;4.03;;
79646;SDS011;69119;41.718;21.786;2023-05-10T05:50:31;6.50;;;3.28;;
79646;SDS011;69119;41.718;21.786;2023-05-10T05:52:57;6.80;;;3.88;;
79646;SDS011;69119;41.718;21.786;2023-05-10T05:55:23;7.72;;;3.97;;
79646;SDS011;69119;41.718;21.786;2023-05-10T05:57:51;8.82;;;4.93;;
79646;SDS011;69119;41.718;21.786;2023-05-10T06:00:17;6.65;;;3.78;;
79646;SDS011;69119;41.718;21.786;2023-05-10T06:02:43;8.93;;;3.55;;
79646;SDS011;69119;41.718;21.786;2023-05-10T06:05:09;8.93;;;5.32;;
79646;SDS011;69119;41.718;21.786;2023-05-10T06:07:35;7.15;;;4.10;;
79646;SDS011;69119;41.718;21.786;2023-05-10T06:10:01;7.63;;;3.22;;
79646;SDS011;69119;41.718;21.786;2023-05-10T06:12:28;7.53;;;3.55;;
79646;SDS011;69119;41.718;21.786;2023-05-10T06:14:54;7.97;;;4.53;;
79646;SDS011;69119;41.718;21.786;2023-05-10T06:17:20;10.63;;;3.60;;
79646;SDS011;69119;41.718;21.786;2023-05-10T06:19:46;6.60;;;3.63;;
79646;SDS011;69119;41.718;21.786;2023-05-10T06:22:12;7.53;;;4.13;;
79646;SDS011;69119;41.718;21.786;2023-05-10T06:24:38;9.35;;;4.75;;
79646;SDS011;69119;41.718;21.786;2023-05-10T06:27:05;7.15;;;4.03;;
79646;SDS011;69119;41.718;21.786;2023-05-10T06:29:31;7.25;;;4.07;;
79646;SDS011;69119;41.718;21.786;2023-05-10T06:32:00;10.10;;;4.63;;
79646;SDS011;69119;41.718;21.786;2023-05-10T06:34:26;9.20;;;4.40;;
79646;SDS011;69119;41.718;21.786;2023-05-10T06:36:52;9.00;;;4.68;;
79646;SDS011;69119;41.718;21.786;2023-05-10T06:39:18;7.65;;;3.97;;
79646;SDS011;69119;41.718;21.786;2023-05-10T06:41:44;6.80;;;3.53;;
79646;SDS011;69119;41.718;21.786;2023-05-10T06:44:10;6.95;;;3.10;;
79646;SDS011;69119;41.718;21.786;2023-05-10T06:46:38;7.05;;;3.83;;
79646;SDS011;69119;41.718;21.786;2023-05-10T06:49:04;6.68;;;3.25;;
79646;SDS011;69119;41.718;21.786;2023-05-10T06:51:30;6.95;;;3.47;;
79646;SDS011;69119;41.718;21.786;2023-05-10T06:53:56;6.70;;;3.15;;
79646;SDS011;69119;41.718;21.786;2023-05-10T06:56:22;7.13;;;3.53;;
79646;SDS011;69119;41.718;21.786;2023-05-10T06:58:48;5.65;;;2.47;;
79646;SDS011;69119;41.718;21.786;2023-05-10T07:01:14;11.27;;;6.43;;
79646;SDS011;69119;41.718;21.786;2023-05-10T07:03:40;5.85;;;3.25;;
79646;SDS011;69119;41.718;21.786;2023-05-10T07:06:06;11.85;;;6.72;;
79646;SDS011;69119;41.718;21.786;2023-05-10T07:08:33;7.18;;;3.63;;
79646;SDS011;69119;41.718;21.786;2023-05-10T07:11:02;6.95;;;3.50;;
79646;SDS011;69119;41.718;21.786;2023-05-10T07:13:29;9.07;;;4.40;;
79646;SDS011;69119;41.718;21.786;2023-05-10T07:15:57;7.65;;;3.53;;
79646;SDS011;69119;41.718;21.786;2023-05-10T07:18:23;6.05;;;3.08;;
79646;SDS011;69119;41.718;21.786;2023-05-10T07:20:49;8.82;;;3.00;;
79646;SDS011;69119;41.718;21.786;2023-05-10T07:25:49;7.28;;;3.83;;
79646;SDS011;69119;41.718;21.786;2023-05-10T07:28:17;7.68;;;2.83;;
79646;SDS011;69119;41.718;21.786;2023-05-10T07:33:10;7.63;;;2.33;;
79646;SDS011;69119;41.718;21.786;2023-05-10T07:35:36;6.88;;;2.78;;
79646;SDS011;69119;41.718;21.786;2023-05-10T07:38:02;5.75;;;2.33;;
79646;SDS011;69119;41.718;21.786;2023-05-10T07:40:31;5.85;;;2.47;;
79646;SDS011;69119;41.718;21.786;2023-05-10T07:42:57;6.22;;;2.75;;
79646;SDS011;69119;41.718;21.786;2023-05-10T07:45:25;5.65;;;2.78;;
79646;SDS011;69119;41.718;21.786;2023-05-10T07:47:56;6.15;;;2.55;;
79646;SDS011;69119;41.718;21.786;2023-05-10T07:50:22;6.38;;;2.22;;
79646;SDS011;69119;41.718;21.786;2023-05-10T07:52:48;6.85;;;2.75;;
79646;SDS011;69119;41.718;21.786;2023-05-10T07:55:17;5.82;;;2.60;;
79646;SDS011;69119;41.718;21.786;2023-05-10T07:57:44;5.20;;;2.00;;
79646;SDS011;69119;41.718;21.786;2023-05-10T08:00:12;8.32;;;3.35;;
79646;SDS011;69119;41.718;21.786;2023-05-10T08:02:38;5.68;;;2.35;;
79646;SDS011;69119;41.718;21.786;2023-05-10T08:05:05;9.27;;;4.38;;
79646;SDS011;69119;41.718;21.786;2023-05-10T08:07:31;7.22;;;3.60;;
79646;SDS011;69119;41.718;21.786;2023-05-10T08:09:57;7.78;;;3.45;;
79646;SDS011;69119;41.718;21.786;2023-05-10T08:12:23;6.03;;;2.58;;
79646;SDS011;69119;41.718;21.786;2023-05-10T08:14:49;7.40;;;3.63;;
79646;SDS011;69119;41.718;21.786;2023-05-10T08:17:15;7.25;;;3.13;;
79646;SDS011;69119;41.718;21.786;2023-05-10T08:19:41;7.03;;;3.38;;
79646;SDS011;69119;41.718;21.786;2023-05-10T08:22:07;7.45;;;3.95;;
79646;SDS011;69119;41.718;21.786;2023-05-10T08:24:34;6.30;;;2.70;;
79646;SDS011;69119;41.718;21.786;2023-05-10T08:27:03;7.40;;;2.90;;
79646;SDS011;69119;41.718;21.786;2023-05-10T08:29:29;6.53;;;2.97;;
79646;SDS011;69119;41.718;21.786;2023-05-10T08:31:55;6.18;;;3.00;;
79646;SDS011;69119;41.718;21.786;2023-05-10T08:34:21;7.97;;;2.78;;
79646;SDS011;69119;41.718;21.786;2023-05-10T08:36:47;6.80;;;3.55;;
79646;SDS011;69119;41.718;21.786;2023-05-10T08:39:13;5.70;;;2.58;;
79646;SDS011;69119;41.718;21.786;2023-05-10T08:41:39;5.95;;;2.42;;
79646;SDS011;69119;41.718;21.786;2023-05-10T08:44:05;6.47;;;3.05;;
79646;SDS011;69119;41.718;21.786;2023-05-10T08:46:33;7.80;;;3.55;;
79646;SDS011;69119;41.718;21.786;2023-05-10T08:49:01;8.35;;;5.50;;
79646;SDS011;69119;41.718;21.786;2023-05-10T08:51:29;8.05;;;4.38;;
79646;SDS011;69119;41.718;21.786;2023-05-10T08:53:57;7.13;;;3.00;;
79646;SDS011;69119;41.718;21.786;2023-05-10T08:56:23;9.18;;;3.72;;
79646;SDS011;69119;41.718;21.786;2023-05-10T08:58:50;8.30;;;5.00;;
79646;SDS011;69119;41.718;21.786;2023-05-10T09:01:16;5.90;;;1.90;;
79646;SDS011;69119;41.718;21.786;2023-05-10T09:06:09;6.45;;;3.30;;
79646;SDS011;69119;41.718;21.786;2023-05-10T09:08:38;6.93;;;3.17;;
79646;SDS011;69119;41.718;21.786;2023-05-10T09:11:06;6.63;;;2.35;;
79646;SDS011;69119;41.718;21.786;2023-05-10T09:13:33;6.30;;;3.00;;
79646;SDS011;69119;41.718;21.786;2023-05-10T09:15:59;5.25;;;2.08;;
79646;SDS011;69119;41.718;21.786;2023-05-10T09:18:25;6.88;;;3.33;;
79646;SDS011;69119;41.718;21.786;2023-05-10T09:20:51;6.43;;;2.15;;
79646;SDS011;69119;41.718;21.786;2023-05-10T09:23:17;6.95;;;3.17;;
79646;SDS011;69119;41.718;21.786;2023-05-10T09:25:43;5.72;;;2.35;;
79646;SDS011;69119;41.718;21.786;2023-05-10T09:28:10;6.68;;;2.00;;
79646;SDS011;69119;41.718;21.786;2023-05-10T09:30:36;5.20;;;1.98;;
79646;SDS011;69119;41.718;21.786;2023-05-10T09:33:02;7.03;;;3.17;;
79646;SDS011;69119;41.718;21.786;2023-05-10T09:35:30;6.28;;;2.95;;
79646;SDS011;69119;41.718;21.786;2023-05-10T09:37:57;6.25;;;3.40;;
79646;SDS011;69119;41.718;21.786;2023-05-10T09:40:27;5.18;;;2.22;;
79646;SDS011;69119;41.718;21.786;2023-05-10T09:42:55;5.32;;;2.40;;
79646;SDS011;69119;41.718;21.786;2023-05-10T09:45:22;4.60;;;1.63;;
79646;SDS011;69119;41.718;21.786;2023-05-10T09:47:48;6.15;;;2.70;;
79646;SDS011;69119;41.718;21.786;2023-05-10T09:50:14;6.30;;;1.90;;
79646;SDS011;69119;41.718;21.786;2023-05-10T09:52:57;5.85;;;2.28;;
79646;SDS011;69119;41.718;21.786;2023-05-10T09:55:24;5.32;;;2.35;;
79646;SDS011;69119;41.718;21.786;2023-05-10T09:57:58;5.20;;;1.77;;
79646;SDS011;69119;41.718;21.786;2023-05-10T10:00:24;5.70;;;2.75;;
79646;SDS011;69119;41.718;21.786;2023-05-10T10:02:54;5.68;;;2.05;;
79646;SDS011;69119;41.718;21.786;2023-05-10T10:05:21;5.25;;;1.30;;
79646;SDS011;69119;41.718;21.786;2023-05-10T10:07:47;5.55;;;2.00;;
79646;SDS011;69119;41.718;21.786;2023-05-10T10:10:15;4.80;;;2.03;;
79646;SDS011;69119;41.718;21.786;2023-05-10T10:12:41;4.22;;;1.63;;
79646;SDS011;69119;41.718;21.786;2023-05-10T10:15:08;4.82;;;1.27;;
79646;SDS011;69119;41.718;21.786;2023-05-10T10:17:35;5.10;;;2.00;;
79646;SDS011;69119;41.718;21.786;2023-05-10T10:20:03;4.95;;;2.08;;
79646;SDS011;69119;41.718;21.786;2023-05-10T10:22:29;4.90;;;1.63;;
79646;SDS011;69119;41.718;21.786;2023-05-10T10:24:55;4.35;;;1.38;;
79646;SDS011;69119;41.718;21.786;2023-05-10T10:27:23;4.72;;;1.70;;
79646;SDS011;69119;41.718;21.786;2023-05-10T10:35:07;6.25;;;2.50;;
79646;SDS011;69119;41.718;21.786;2023-05-10T10:40:00;5.97;;;2.90;;
79646;SDS011;69119;41.718;21.786;2023-05-10T10:42:44;5.57;;;2.60;;
79646;SDS011;69119;41.718;21.786;2023-05-10T10:45:11;5.20;;;2.42;;
79646;SDS011;69119;41.718;21.786;2023-05-10T10:47:38;9.80;;;4.35;;
79646;SDS011;69119;41.718;21.786;2023-05-10T10:50:05;5.78;;;2.45;;
79646;SDS011;69119;41.718;21.786;2023-05-10T11:00:27;6.32;;;1.88;;
79646;SDS011;69119;41.718;21.786;2023-05-10T11:05:33;6.53;;;2.05;;
79646;SDS011;69119;41.718;21.786;2023-05-10T11:08:01;6.57;;;2.72;;
79646;SDS011;69119;41.718;21.786;2023-05-10T11:10:32;7.60;;;3.92;;
79646;SDS011;69119;41.718;21.786;2023-05-10T11:15:36;4.68;;;1.70;;
79646;SDS011;69119;41.718;21.786;2023-05-10T11:20:51;7.07;;;2.53;;
79646;SDS011;69119;41.718;21.786;2023-05-10T11:23:17;6.55;;;2.60;;
79646;SDS011;69119;41.718;21.786;2023-05-10T11:25:45;5.60;;;2.13;;
79646;SDS011;69119;41.718;21.786;2023-05-10T11:28:12;6.53;;;2.03;;
79646;SDS011;69119;41.718;21.786;2023-05-10T11:30:38;5.88;;;1.95;;
79646;SDS011;69119;41.718;21.786;2023-05-10T11:33:05;5.35;;;1.95;;
79646;SDS011;69119;41.718;21.786;2023-05-10T11:35:31;6.75;;;2.80;;
79646;SDS011;69119;41.718;21.786;2023-05-10T11:38:02;7.55;;;2.50;;
79646;SDS011;69119;41.718;21.786;2023-05-10T11:40:30;6.70;;;2.92;;
79646;SDS011;69119;41.718;21.786;2023-05-10T11:42:56;5.95;;;2.13;;
79646;SDS011;69119;41.718;21.786;2023-05-10T11:45:23;6.13;;;2.60;;
79646;SDS011;69119;41.718;21.786;2023-05-10T11:47:49;6.72;;;2.65;;
79646;SDS011;69119;41.718;21.786;2023-05-10T11:50:16;6.47;;;2.67;;
79646;SDS011;69119;41.718;21.786;2023-05-10T11:52:43;6.32;;;2.60;;
79646;SDS011;69119;41.718;21.786;2023-05-10T11:55:09;6.55;;;2.47;;
79646;SDS011;69119;41.718;21.786;2023-05-10T11:57:35;11.27;;;3.33;;
79646;SDS011;69119;41.718;21.786;2023-05-10T12:00:03;6.32;;;2.72;;
79646;SDS011;69119;41.718;21.786;2023-05-10T12:02:30;7.50;;;3.25;;
79646;SDS011;69119;41.718;21.786;2023-05-10T12:04:56;9.05;;;3.28;;
79646;SDS011;69119;41.718;21.786;2023-05-10T12:07:22;8.35;;;3.38;;
79646;SDS011;69119;41.718;21.786;2023-05-10T12:10:07;5.95;;;2.60;;
79646;SDS011;69119;41.718;21.786;2023-05-10T12:12:39;6.57;;;2.22;;
79646;SDS011;69119;41.718;21.786;2023-05-10T12:15:12;6.07;;;2.65;;
79646;SDS011;69119;41.718;21.786;2023-05-10T12:17:38;11.88;;;3.17;;
79646;SDS011;69119;41.718;21.786;2023-05-10T12:22:40;6.32;;;2.70;;
79646;SDS011;69119;41.718;21.786;2023-05-10T12:25:07;7.38;;;2.22;;
79646;SDS011;69119;41.718;21.786;2023-05-10T12:27:34;5.97;;;2.88;;
79646;SDS011;69119;41.718;21.786;2023-05-10T12:30:00;5.85;;;2.08;;
79646;SDS011;69119;41.718;21.786;2023-05-10T12:32:39;7.13;;;2.65;;
79646;SDS011;69119;41.718;21.786;2023-05-10T12:35:05;6.55;;;2.38;;
79646;SDS011;69119;41.718;21.786;2023-05-10T12:37:32;8.00;;;3.25;;
79646;SDS011;69119;41.718;21.786;2023-05-10T12:40:01;7.05;;;2.88;;
79646;SDS011;69119;41.718;21.786;2023-05-10T12:42:29;6.63;;;2.42;;
79646;SDS011;69119;41.718;21.786;2023-05-10T12:44:56;7.20;;;2.92;;
79646;SDS011;69119;41.718;21.786;2023-05-10T12:47:22;8.13;;;3.28;;
79646;SDS011;69119;41.718;21.786;2023-05-10T12:49:48;7.90;;;3.65;;
79646;SDS011;69119;41.718;21.786;2023-05-10T12:52:16;7.72;;;4.18;;
79646;SDS011;69119;41.718;21.786;2023-05-10T12:54:42;7.05;;;2.90;;
79646;SDS011;69119;41.718;21.786;2023-05-10T12:57:08;8.10;;;3.42;;
79646;SDS011;69119;41.718;21.786;2023-05-10T12:59:34;7.90;;;2.78;;
79646;SDS011;69119;41.718;21.786;2023-05-10T13:02:00;7.00;;;3.08;;
79646;SDS011;69119;41.718;21.786;2023-05-10T13:04:26;8.68;;;2.90;;
79646;SDS011;69119;41.718;21.786;2023-05-10T13:06:52;5.20;;;2.15;;
79646;SDS011;69119;41.718;21.786;2023-05-10T13:09:20;8.38;;;3.28;;
79646;SDS011;69119;41.718;21.786;2023-05-10T13:11:46;6.72;;;3.13;;
79646;SDS011;69119;41.718;21.786;2023-05-10T13:14:13;7.65;;;3.28;;
79646;SDS011;69119;41.718;21.786;2023-05-10T13:16:39;6.60;;;2.13;;
79646;SDS011;69119;41.718;21.786;2023-05-10T13:19:05;6.97;;;2.83;;
79646;SDS011;69119;41.718;21.786;2023-05-10T13:23:57;7.72;;;3.65;;
79646;SDS011;69119;41.718;21.786;2023-05-10T13:26:23;6.25;;;2.72;;
79646;SDS011;69119;41.718;21.786;2023-05-10T13:28:50;6.35;;;2.53;;
79646;SDS011;69119;41.718;21.786;2023-05-10T13:31:16;7.03;;;2.67;;
79646;SDS011;69119;41.718;21.786;2023-05-10T13:33:42;7.50;;;3.00;;
79646;SDS011;69119;41.718;21.786;2023-05-10T13:36:08;5.72;;;2.92;;
79646;SDS011;69119;41.718;21.786;2023-05-10T13:38:34;7.72;;;3.85;;
79646;SDS011;69119;41.718;21.786;2023-05-10T13:41:01;6.53;;;2.58;;
79646;SDS011;69119;41.718;21.786;2023-05-10T13:43:27;5.97;;;2.35;;
79646;SDS011;69119;41.718;21.786;2023-05-10T13:45:53;5.93;;;2.20;;
79646;SDS011;69119;41.718;21.786;2023-05-10T13:48:19;7.03;;;2.85;;
79646;SDS011;69119;41.718;21.786;2023-05-10T13:50:45;6.13;;;2.28;;
79646;SDS011;69119;41.718;21.786;2023-05-10T13:53:11;7.97;;;2.00;;
79646;SDS011;69119;41.718;21.786;2023-05-10T13:55:37;6.20;;;2.83;;
79646;SDS011;69119;41.718;21.786;2023-05-10T13:58:03;8.57;;;2.38;;
79646;SDS011;69119;41.718;21.786;2023-05-10T14:00:29;6.75;;;2.38;;
79646;SDS011;69119;41.718;21.786;2023-05-10T14:02:56;8.23;;;2.85;;
79646;SDS011;69119;41.718;21.786;2023-05-10T14:05:22;6.95;;;2.25;;
79646;SDS011;69119;41.718;21.786;2023-05-10T14:07:48;6.38;;;2.50;;
79646;SDS011;69119;41.718;21.786;2023-05-10T14:10:14;6.35;;;2.60;;
79646;SDS011;69119;41.718;21.786;2023-05-10T14:12:40;6.55;;;2.30;;
79646;SDS011;69119;41.718;21.786;2023-05-10T14:15:06;6.05;;;2.53;;
79646;SDS011;69119;41.718;21.786;2023-05-10T14:17:33;7.88;;;2.65;;
79646;SDS011;69119;41.718;21.786;2023-05-10T14:19:59;7.38;;;2.78;;
79646;SDS011;69119;41.718;21.786;2023-05-10T14:24:51;6.82;;;3.08;;
79646;SDS011;69119;41.718;21.786;2023-05-10T14:27:17;9.38;;;3.47;;
79646;SDS011;69119;41.718;21.786;2023-05-10T14:29:43;7.72;;;2.38;;
79646;SDS011;69119;41.718;21.786;2023-05-10T14:32:09;8.10;;;3.90;;
79646;SDS011;69119;41.718;21.786;2023-05-10T14:34:35;6.38;;;2.50;;
79646;SDS011;69119;41.718;21.786;2023-05-10T14:37:01;7.18;;;3.08;;
79646;SDS011;69119;41.718;21.786;2023-05-10T14:39:27;6.60;;;2.97;;
79646;SDS011;69119;41.718;21.786;2023-05-10T14:41:55;7.07;;;2.90;;
79646;SDS011;69119;41.718;21.786;2023-05-10T14:44:21;9.35;;;2.72;;
79646;SDS011;69119;41.718;21.786;2023-05-10T14:46:47;9.32;;;4.03;;
79646;SDS011;69119;41.718;21.786;2023-05-10T14:49:14;10.05;;;6.50;;
79646;SDS011;69119;41.718;21.786;2023-05-10T14:51:40;12.68;;;6.90;;
79646;SDS011;69119;41.718;21.786;2023-05-10T14:54:06;9.68;;;3.80;;
79646;SDS011;69119;41.718;21.786;2023-05-10T14:56:32;8.93;;;4.28;;
79646;SDS011;69119;41.718;21.786;2023-05-10T14:58:58;8.80;;;3.63;;
79646;SDS011;69119;41.718;21.786;2023-05-10T15:01:25;9.32;;;4.80;;
79646;SDS011;69119;41.718;21.786;2023-05-10T15:03:51;5.88;;;2.80;;
79646;SDS011;69119;41.718;21.786;2023-05-10T15:06:17;7.28;;;2.95;;
79646;SDS011;69119;41.718;21.786;2023-05-10T15:08:49;9.77;;;3.15;;
79646;SDS011;69119;41.718;21.786;2023-05-10T15:11:15;8.25;;;3.63;;
79646;SDS011;69119;41.718;21.786;2023-05-10T15:13:41;5.82;;;2.17;;
79646;SDS011;69119;41.718;21.786;2023-05-10T15:16:07;7.72;;;2.60;;
79646;SDS011;69119;41.718;21.786;2023-05-10T15:18:33;8.35;;;3.67;;
79646;SDS011;69119;41.718;21.786;2023-05-10T15:20:59;5.85;;;2.08;;
79646;SDS011;69119;41.718;21.786;2023-05-10T15:23:25;5.63;;;2.25;;
79646;SDS011;69119;41.718;21.786;2023-05-10T15:25:52;6.60;;;2.70;;
79646;SDS011;69119;41.718;21.786;2023-05-10T15:28:20;7.97;;;2.92;;
79646;SDS011;69119;41.718;21.786;2023-05-10T15:30:46;8.20;;;2.80;;
79646;SDS011;69119;41.718;21.786;2023-05-10T15:33:12;7.43;;;3.47;;
79646;SDS011;69119;41.718;21.786;2023-05-10T15:35:38;6.75;;;2.75;;